Time;durP1;ratioP1;P1;durP2;ratioP2;P2;SDS_P1;SDS_P2;PMS_P1;PMS_P2;Temp;Humidity;BMP_temperature;BMP_pressure;BME280_temperature;BME280_humidity;BME280_pressure;Samples;Min_cycle;Max_cycle;Signal;HPM_P1;HPM_P2
2023/04/15 00:00:37;;;;;;;11.45;7.57;;;;;;;;;;4941719;29;20036;-91
2023/04/15 00:03:07;;;;;;;11.30;7.43;;;;;;;;;;4942534;29;20059;-93
2023/04/15 00:05:34;;;;;;;10.73;7.18;;;;;;;;;;4942375;29;20107;-92
2023/04/15 00:08:00;;;;;;;9.45;6.72;;;;;;;;;;4942660;29;20319;-91
2023/04/15 00:10:27;;;;;;;9.70;6.70;;;;;;;;;;4953062;29;20018;-92
2023/04/15 00:15:57;;;;;;;9.15;5.65;;;;;;;;;;4947338;29;20561;-91
2023/04/15 00:18:23;;;;;;;9.13;6.43;;;;;;;;;;4941238;29;20043;-91
2023/04/15 00:20:49;;;;;;;8.05;6.55;;;;;;;;;;4942129;29;20493;-92
2023/04/15 00:23:15;;;;;;;10.27;6.88;;;;;;;;;;4943017;29;20054;-91
2023/04/15 00:25:42;;;;;;;8.18;6.30;;;;;;;;;;4941704;29;20119;-90
2023/04/15 00:28:08;;;;;;;9.95;7.15;;;;;;;;;;4942025;29;20024;-90
2023/04/15 00:30:34;;;;;;;12.20;7.78;;;;;;;;;;4954225;29;20023;-89
2023/04/15 00:33:03;;;;;;;12.60;7.22;;;;;;;;;;4958483;29;20055;-90
2023/04/15 00:35:33;;;;;;;10.82;7.25;;;;;;;;;;4958239;28;20031;-91
2023/04/15 00:37:59;;;;;;;12.02;8.27;;;;;;;;;;4942020;29;20110;-91
2023/04/15 00:40:26;;;;;;;14.48;9.02;;;;;;;;;;4951486;29;20023;-92
2023/04/15 00:42:53;;;;;;;13.05;8.20;;;;;;;;;;4960684;29;20027;-91
2023/04/15 00:45:19;;;;;;;12.80;8.32;;;;;;;;;;4960587;29;20028;-90
2023/04/15 00:47:45;;;;;;;15.60;8.68;;;;;;;;;;4959454;29;20421;-90
2023/04/15 00:50:12;;;;;;;18.23;10.02;;;;;;;;;;4944205;29;20045;-93
2023/04/15 00:52:39;;;;;;;16.45;9.52;;;;;;;;;;4940613;29;20032;-91
2023/04/15 00:55:05;;;;;;;11.02;7.40;;;;;;;;;;4941277;29;20031;-91
2023/04/15 00:57:32;;;;;;;10.65;6.82;;;;;;;;;;4945462;29;20110;-92
2023/04/15 00:59:58;;;;;;;9.32;6.82;;;;;;;;;;4959877;29;20150;-92
2023/04/15 01:02:24;;;;;;;9.75;6.40;;;;;;;;;;4950948;29;20074;-91
2023/04/15 01:04:50;;;;;;;9.27;6.32;;;;;;;;;;4941619;29;20318;-91
2023/04/15 01:07:16;;;;;;;9.73;6.63;;;;;;;;;;4957365;28;20028;-92
2023/04/15 01:09:43;;;;;;;9.40;6.10;;;;;;;;;;4943441;29;20031;-92
2023/04/15 01:12:11;;;;;;;8.63;6.53;;;;;;;;;;4941291;29;20026;-93
2023/04/15 01:14:56;;;;;;;8.80;6.20;;;;;;;;;;4941338;29;20505;-89
2023/04/15 01:17:23;;;;;;;12.00;6.50;;;;;;;;;;4941083;29;20031;-90
2023/04/15 01:19:49;;;;;;;13.23;6.70;;;;;;;;;;4953449;29;20031;-92
2023/04/15 01:22:15;;;;;;;17.90;9.32;;;;;;;;;;4959914;29;20059;-90
2023/04/15 01:24:43;;;;;;;17.27;8.90;;;;;;;;;;4958565;29;20097;-92
2023/04/15 01:27:10;;;;;;;17.17;9.23;;;;;;;;;;4958980;29;20469;-90
2023/04/15 01:29:37;;;;;;;21.67;9.63;;;;;;;;;;4957835;29;20443;-92
2023/04/15 01:32:03;;;;;;;10.07;7.70;;;;;;;;;;4940965;29;20024;-90
2023/04/15 01:34:29;;;;;;;11.05;7.07;;;;;;;;;;4939802;29;20039;-91
2023/04/15 01:36:55;;;;;;;12.18;7.85;;;;;;;;;;4941175;29;20051;-90
2023/04/15 01:39:22;;;;;;;11.65;8.07;;;;;;;;;;4940499;29;20046;-91
2023/04/15 01:41:48;;;;;;;10.98;8.07;;;;;;;;;;4941141;29;20059;-90
2023/04/15 01:44:14;;;;;;;10.52;7.28;;;;;;;;;;4940753;29;20039;-89
2023/04/15 01:46:40;;;;;;;9.38;6.35;;;;;;;;;;4940400;29;20423;-89
2023/04/15 01:49:07;;;;;;;9.75;5.80;;;;;;;;;;4939527;29;20454;-88
2023/04/15 01:51:33;;;;;;;9.45;5.90;;;;;;;;;;4940739;29;20028;-88
2023/04/15 01:53:59;;;;;;;9.75;7.45;;;;;;;;;;4940143;29;20419;-88
2023/04/15 01:56:25;;;;;;;10.48;7.65;;;;;;;;;;4940910;29;20118;-90
2023/04/15 01:59:22;;;;;;;11.88;8.27;;;;;;;;;;4940818;29;20311;-88
2023/04/15 02:01:48;;;;;;;9.90;7.65;;;;;;;;;;4940306;29;20079;-89
2023/04/15 02:04:17;;;;;;;9.50;6.03;;;;;;;;;;4955163;29;20236;-89
2023/04/15 02:06:43;;;;;;;12.75;6.95;;;;;;;;;;4941886;29;20031;-89
2023/04/15 02:09:10;;;;;;;15.13;7.30;;;;;;;;;;4939335;29;20418;-91
2023/04/15 02:11:36;;;;;;;9.27;7.40;;;;;;;;;;4940871;29;20028;-88
2023/04/15 02:14:21;;;;;;;12.43;8.05;;;;;;;;;;4954398;29;20027;-89
2023/04/15 02:16:47;;;;;;;11.82;8.18;;;;;;;;;;4959623;29;20477;-89
2023/04/15 02:19:15;;;;;;;10.18;7.28;;;;;;;;;;4935333;29;20374;-89
2023/04/15 02:21:41;;;;;;;11.15;7.85;;;;;;;;;;4939263;29;20039;-89
2023/04/15 02:24:07;;;;;;;12.20;7.90;;;;;;;;;;4940472;29;20087;-89
2023/04/15 02:26:33;;;;;;;11.95;7.68;;;;;;;;;;4940254;29;20407;-90
2023/04/15 02:29:22;;;;;;;10.55;7.50;;;;;;;;;;4940271;29;20407;-89
2023/04/15 02:31:48;;;;;;;11.80;7.28;;;;;;;;;;4939280;29;20032;-89
2023/04/15 02:34:14;;;;;;;12.68;7.95;;;;;;;;;;4940400;29;20031;-90
2023/04/15 02:36:40;;;;;;;10.95;8.00;;;;;;;;;;4940377;29;20079;-90
2023/04/15 02:39:07;;;;;;;10.52;8.23;;;;;;;;;;4940215;29;20032;-89
2023/04/15 02:41:33;;;;;;;12.68;8.45;;;;;;;;;;4939259;29;20042;-89
2023/04/15 02:47:04;;;;;;;14.70;8.30;;;;;;;;;;4940199;29;20049;-90
2023/04/15 02:49:30;;;;;;;12.23;8.52;;;;;;;;;;4940275;29;20107;-90
2023/04/15 02:51:57;;;;;;;13.95;9.40;;;;;;;;;;4939898;29;20039;-91
2023/04/15 02:54:23;;;;;;;9.68;8.48;;;;;;;;;;4958653;29;20436;-91
2023/04/15 02:56:49;;;;;;;11.38;8.57;;;;;;;;;;4958755;29;20031;-90
2023/04/15 02:59:16;;;;;;;11.73;7.90;;;;;;;;;;4959389;28;20032;-89
2023/04/15 03:01:42;;;;;;;12.07;7.82;;;;;;;;;;4962896;29;20358;-89
2023/04/15 03:04:08;;;;;;;10.23;8.02;;;;;;;;;;4961900;29;20027;-91
2023/04/15 03:06:34;;;;;;;16.63;9.55;;;;;;;;;;4961469;29;20102;-91
2023/04/15 03:09:01;;;;;;;13.48;10.43;;;;;;;;;;4945791;28;20035;-88
2023/04/15 03:11:30;;;;;;;15.18;11.32;;;;;;;;;;4943165;29;20351;-89
2023/04/15 03:13:57;;;;;;;16.45;12.20;;;;;;;;;;4943560;29;20027;-89
2023/04/15 03:16:23;;;;;;;14.63;10.95;;;;;;;;;;4942551;29;20067;-87
2023/04/15 03:18:49;;;;;;;15.38;10.80;;;;;;;;;;4942717;29;20043;-89
2023/04/15 03:21:15;;;;;;;13.80;10.00;;;;;;;;;;4943473;29;20037;-89
2023/04/15 03:23:41;;;;;;;16.52;11.07;;;;;;;;;;4950574;29;20069;-89
2023/04/15 03:26:07;;;;;;;28.50;15.23;;;;;;;;;;4962344;28;20031;-89
2023/04/15 03:28:36;;;;;;;193.05;103.95;;;;;;;;;;4962367;28;20027;-89
2023/04/15 03:31:02;;;;;;;51.35;35.25;;;;;;;;;;4962233;28;20047;-90
2023/04/15 03:33:28;;;;;;;33.45;23.95;;;;;;;;;;4947491;29;20028;-89
2023/04/15 03:35:54;;;;;;;19.02;16.60;;;;;;;;;;4959138;29;20131;-91
2023/04/15 03:38:21;;;;;;;15.32;12.25;;;;;;;;;;4942998;29;20031;-90
2023/04/15 03:40:47;;;;;;;17.30;11.57;;;;;;;;;;4943409;29;20032;-91
2023/04/15 03:43:13;;;;;;;17.65;11.55;;;;;;;;;;4942982;29;20035;-90
2023/04/15 03:48:43;;;;;;;16.65;11.15;;;;;;;;;;4943228;29;20112;-89
2023/04/15 03:51:09;;;;;;;18.27;11.10;;;;;;;;;;4942643;29;20395;-88
2023/04/15 03:53:35;;;;;;;14.90;10.50;;;;;;;;;;4943037;29;20036;-89
2023/04/15 03:56:01;;;;;;;17.55;11.20;;;;;;;;;;4941884;29;20071;-89
2023/04/15 04:01:31;;;;;;;18.30;11.77;;;;;;;;;;4943047;29;20044;-89
2023/04/15 04:03:57;;;;;;;16.88;10.57;;;;;;;;;;4941765;29;20027;-89
2023/04/15 04:06:23;;;;;;;16.05;12.23;;;;;;;;;;4941531;29;20414;-89
2023/04/15 04:08:49;;;;;;;19.63;13.40;;;;;;;;;;4942760;29;20020;-89
2023/04/15 04:11:16;;;;;;;19.27;13.63;;;;;;;;;;4941918;29;20118;-89
2023/04/15 04:16:45;;;;;;;15.35;10.77;;;;;;;;;;4961898;29;20065;-90
2023/04/15 04:19:11;;;;;;;14.57;11.00;;;;;;;;;;4957629;29;20106;-89
2023/04/15 04:21:38;;;;;;;14.35;10.77;;;;;;;;;;4953253;29;20031;-89
2023/04/15 04:24:04;;;;;;;12.82;9.82;;;;;;;;;;4946402;28;20031;-89
2023/04/15 04:26:30;;;;;;;16.17;10.23;;;;;;;;;;4945780;29;20067;-90
2023/04/15 04:32:00;;;;;;;19.15;12.98;;;;;;;;;;4942148;29;20071;-89
2023/04/15 04:34:26;;;;;;;23.52;14.95;;;;;;;;;;4942417;29;20403;-90
2023/04/15 04:36:52;;;;;;;29.55;15.27;;;;;;;;;;4942601;29;20032;-88
2023/04/15 04:39:18;;;;;;;33.47;18.45;;;;;;;;;;4945508;29;20038;-89
2023/04/15 04:41:44;;;;;;;30.73;18.23;;;;;;;;;;4961087;28;20027;-91
2023/04/15 04:44:10;;;;;;;27.50;15.38;;;;;;;;;;4959135;28;20035;-90
2023/04/15 04:46:36;;;;;;;24.58;14.20;;;;;;;;;;4957116;28;20027;-90
2023/04/15 04:49:02;;;;;;;24.67;15.05;;;;;;;;;;4941451;29;20113;-90
2023/04/15 04:51:28;;;;;;;28.27;17.92;;;;;;;;;;4940322;29;20028;-91
2023/04/15 04:53:55;;;;;;;27.38;16.90;;;;;;;;;;4940429;29;20071;-90
2023/04/15 04:56:22;;;;;;;27.98;15.68;;;;;;;;;;4948180;29;20027;-90
2023/04/15 04:59:16;;;;;;;26.83;16.17;;;;;;;;;;4950939;28;20027;-90
2023/04/15 05:01:42;;;;;;;24.45;15.77;;;;;;;;;;4940830;29;20023;-89
2023/04/15 05:04:08;;;;;;;26.23;16.58;;;;;;;;;;4941128;29;20411;-91
2023/04/15 05:06:35;;;;;;;21.35;14.10;;;;;;;;;;4941307;29;20322;-90
2023/04/15 05:09:02;;;;;;;21.23;12.93;;;;;;;;;;4943439;29;20023;-91
2023/04/15 05:11:28;;;;;;;16.40;11.55;;;;;;;;;;4952584;29;20066;-91
2023/04/15 05:17:11;;;;;;;15.80;10.40;;;;;;;;;;4941461;29;20474;-89
2023/04/15 05:19:37;;;;;;;19.10;13.15;;;;;;;;;;4941139;29;20043;-90
2023/04/15 05:22:04;;;;;;;22.85;16.27;;;;;;;;;;4939978;29;20423;-90
2023/04/15 05:24:30;;;;;;;35.55;21.80;;;;;;;;;;4941198;29;20028;-90
2023/04/15 05:26:56;;;;;;;18.95;14.82;;;;;;;;;;4941181;29;20024;-89
2023/04/15 05:29:41;;;;;;;20.63;14.88;;;;;;;;;;4940086;29;20051;-90
2023/04/15 05:32:07;;;;;;;22.50;15.65;;;;;;;;;;4952243;29;20031;-91
2023/04/15 05:34:33;;;;;;;78.50;37.95;;;;;;;;;;4945023;29;20038;-91
2023/04/15 05:36:59;;;;;;;70.47;35.97;;;;;;;;;;4939909;29;20039;-92
2023/04/15 05:39:26;;;;;;;36.35;21.17;;;;;;;;;;4940009;29;20070;-92
2023/04/15 05:41:52;;;;;;;34.92;19.15;;;;;;;;;;4939978;29;20023;-93
2023/04/15 05:44:18;;;;;;;32.83;16.38;;;;;;;;;;4940873;29;20038;-92
2023/04/15 05:46:44;;;;;;;25.52;15.38;;;;;;;;;;4939735;29;20032;-91
2023/04/15 05:49:10;;;;;;;22.58;14.77;;;;;;;;;;4940916;29;20020;-91
2023/04/15 05:51:38;;;;;;;29.63;14.90;;;;;;;;;;4940720;29;20032;-91
2023/04/15 05:54:04;;;;;;;27.77;15.30;;;;;;;;;;4939451;29;20027;-91
2023/04/15 05:56:30;;;;;;;32.25;14.73;;;;;;;;;;4940870;29;20032;-93
2023/04/15 05:58:56;;;;;;;23.85;14.23;;;;;;;;;;4939664;29;20079;-92
2023/04/15 06:01:22;;;;;;;25.55;14.07;;;;;;;;;;4940589;29;20378;-92
2023/04/15 06:03:49;;;;;;;22.30;14.60;;;;;;;;;;4939327;29;20123;-90
2023/04/15 06:06:15;;;;;;;26.23;14.30;;;;;;;;;;4940835;29;20049;-88
2023/04/15 06:08:41;;;;;;;21.02;12.48;;;;;;;;;;4939533;29;20027;-90
2023/04/15 06:11:07;;;;;;;22.50;13.18;;;;;;;;;;4957390;29;20434;-89
2023/04/15 06:13:33;;;;;;;16.95;11.48;;;;;;;;;;4946852;29;20024;-90
2023/04/15 06:19:17;;;;;;;15.13;9.93;;;;;;;;;;4946537;29;20441;-89
2023/04/15 06:21:43;;;;;;;13.15;10.07;;;;;;;;;;4945956;29;20040;-89
2023/04/15 06:24:10;;;;;;;12.98;9.13;;;;;;;;;;4945779;29;20065;-91
2023/04/15 06:26:36;;;;;;;13.32;8.73;;;;;;;;;;4946823;29;20051;-90
2023/04/15 06:32:06;;;;;;;19.27;12.07;;;;;;;;;;4944767;29;20046;-90
2023/04/15 06:34:32;;;;;;;15.57;10.15;;;;;;;;;;4949049;29;20044;-88
2023/04/15 06:36:58;;;;;;;43.97;20.35;;;;;;;;;;4948943;29;20323;-87
2023/04/15 06:39:24;;;;;;;45.83;19.80;;;;;;;;;;4950531;29;20067;-90
2023/04/15 06:41:50;;;;;;;29.25;12.05;;;;;;;;;;4942889;29;20071;-89
2023/04/15 06:44:17;;;;;;;16.67;8.32;;;;;;;;;;4955054;29;20031;-90
2023/04/15 06:46:43;;;;;;;19.13;8.80;;;;;;;;;;4957826;29;20111;-90
2023/04/15 06:49:10;;;;;;;17.80;8.75;;;;;;;;;;4943707;29;20027;-89
2023/04/15 06:51:36;;;;;;;28.80;10.65;;;;;;;;;;4974601;28;20043;-91
2023/04/15 06:54:04;;;;;;;21.65;7.40;;;;;;;;;;4944092;29;20027;-92
2023/04/15 06:56:31;;;;;;;9.02;4.47;;;;;;;;;;4942914;29;20036;-90
2023/04/15 06:58:57;;;;;;;13.25;4.20;;;;;;;;;;4944959;29;20043;-90
2023/04/15 07:01:23;;;;;;;13.35;4.45;;;;;;;;;;4962323;29;20031;-89
2023/04/15 07:03:49;;;;;;;9.55;3.50;;;;;;;;;;4956136;29;20039;-89
2023/04/15 07:06:15;;;;;;;4.20;2.10;;;;;;;;;;4961811;29;20038;-90
2023/04/15 07:08:41;;;;;;;4.15;2.15;;;;;;;;;;4962707;28;20023;-90
2023/04/15 07:11:07;;;;;;;3.97;1.65;;;;;;;;;;4961823;29;20456;-87
2023/04/15 07:13:34;;;;;;;5.38;2.45;;;;;;;;;;4960414;29;20102;-92
2023/04/15 07:16:50;;;;;;;9.13;2.95;;;;;;;;;;4949441;29;20094;-94
2023/04/15 07:19:17;;;;;;;5.97;2.63;;;;;;;;;;4961750;29;20039;-94
2023/04/15 07:21:43;;;;;;;6.50;3.08;;;;;;;;;;4947531;29;20394;-93
2023/04/15 07:24:10;;;;;;;3.15;1.98;;;;;;;;;;4947248;29;20043;-95
2023/04/15 07:26:36;;;;;;;6.68;3.08;;;;;;;;;;4943976;29;20031;-89
2023/04/15 07:29:02;;;;;;;7.72;3.72;;;;;;;;;;4942312;29;20121;-89
2023/04/15 07:31:28;;;;;;;18.33;7.93;;;;;;;;;;4943140;29;20056;-90
2023/04/15 07:33:54;;;;;;;5.25;2.58;;;;;;;;;;4943142;29;20032;-88
2023/04/15 07:36:20;;;;;;;4.80;2.30;;;;;;;;;;4974370;28;20082;-89
2023/04/15 07:38:47;;;;;;;5.75;3.47;;;;;;;;;;4943348;29;20027;-88
2023/04/15 07:41:13;;;;;;;8.05;3.95;;;;;;;;;;4974140;28;20334;-89
2023/04/15 07:43:39;;;;;;;5.80;2.90;;;;;;;;;;4943115;29;20027;-89
2023/04/15 07:49:22;;;;;;;6.55;2.08;;;;;;;;;;4945647;29;20042;-89
2023/04/15 07:51:49;;;;;;;8.88;5.10;;;;;;;;;;4957836;29;20114;-88
2023/04/15 07:54:15;;;;;;;6.47;3.83;;;;;;;;;;4961905;29;20027;-89
2023/04/15 07:56:41;;;;;;;7.00;3.60;;;;;;;;;;4944367;29;20378;-89
2023/04/15 07:59:08;;;;;;;5.03;2.00;;;;;;;;;;4943354;29;20315;-89
2023/04/15 08:01:53;;;;;;;4.07;2.00;;;;;;;;;;4935739;29;20417;-87
2023/04/15 08:04:19;;;;;;;7.03;3.70;;;;;;;;;;4959702;29;20031;-89
2023/04/15 08:06:47;;;;;;;11.50;4.72;;;;;;;;;;4960316;29;20154;-89
2023/04/15 08:09:13;;;;;;;12.45;5.47;;;;;;;;;;4961649;29;20102;-89
2023/04/15 08:11:39;;;;;;;7.05;3.70;;;;;;;;;;4961675;29;20410;-90
2023/04/15 08:14:05;;;;;;;11.48;4.03;;;;;;;;;;4961370;29;20106;-89
2023/04/15 08:16:32;;;;;;;5.00;2.20;;;;;;;;;;4960346;29;20502;-89
2023/04/15 08:18:58;;;;;;;5.75;2.80;;;;;;;;;;4961818;29;20037;-89
2023/04/15 08:21:24;;;;;;;6.70;2.88;;;;;;;;;;4960506;29;20019;-90
2023/04/15 08:23:51;;;;;;;4.25;1.98;;;;;;;;;;4960279;29;20417;-89
2023/04/15 08:26:17;;;;;;;4.15;1.83;;;;;;;;;;4961307;29;20031;-89
2023/04/15 08:28:44;;;;;;;8.88;2.33;;;;;;;;;;4959989;29;20023;-88
2023/04/15 08:31:10;;;;;;;7.45;2.30;;;;;;;;;;4954819;29;20056;-88
2023/04/15 08:33:36;;;;;;;7.47;2.72;;;;;;;;;;4961309;29;20034;-88
2023/04/15 08:36:03;;;;;;;5.32;2.78;;;;;;;;;;4959986;29;20035;-89
2023/04/15 08:38:29;;;;;;;3.97;1.95;;;;;;;;;;4961170;29;20135;-89
2023/04/15 08:40:57;;;;;;;4.40;2.10;;;;;;;;;;4960374;29;20035;-89
2023/04/15 08:43:27;;;;;;;3.55;1.73;;;;;;;;;;4961084;29;20031;-88
2023/04/15 08:45:53;;;;;;;3.33;1.20;;;;;;;;;;4960945;29;20031;-89
2023/04/15 08:48:21;;;;;;;4.05;2.60;;;;;;;;;;4961148;29;20024;-88
2023/04/15 08:50:48;;;;;;;2.05;1.08;;;;;;;;;;4961215;29;20055;-89
2023/04/15 08:53:14;;;;;;;1.83;1.00;;;;;;;;;;4961137;29;20023;-90
2023/04/15 08:55:50;;;;;;;3.28;1.50;;;;;;;;;;4960808;29;20049;-90
2023/04/15 08:58:17;;;;;;;2.75;1.38;;;;;;;;;;4959692;28;20345;-89
2023/04/15 09:00:43;;;;;;;3.53;1.55;;;;;;;;;;4960648;29;20027;-88
2023/04/15 09:03:09;;;;;;;5.50;2.30;;;;;;;;;;4960841;29;20043;-89
2023/04/15 09:05:36;;;;;;;2.92;1.20;;;;;;;;;;4960972;29;20038;-90
2023/04/15 09:08:03;;;;;;;4.40;2.20;;;;;;;;;;4959316;28;20034;-88
2023/04/15 09:10:29;;;;;;;2.65;1.38;;;;;;;;;;4960696;29;20406;-89
2023/04/15 09:12:56;;;;;;;3.67;1.80;;;;;;;;;;4959602;29;20058;-89
2023/04/15 09:15:24;;;;;;;1.85;1.23;;;;;;;;;;4959506;29;20326;-90
2023/04/15 09:17:50;;;;;;;4.30;1.10;;;;;;;;;;4960315;29;20090;-88
2023/04/15 09:20:20;;;;;;;3.83;2.35;;;;;;;;;;4959502;29;20027;-90
2023/04/15 09:22:47;;;;;;;4.28;1.42;;;;;;;;;;4944450;29;20051;-86
2023/04/15 09:25:29;;;;;;;6.47;3.42;;;;;;;;;;4939509;29;20045;-84
2023/04/15 09:27:56;;;;;;;9.43;7.25;;;;;;;;;;4940554;29;20032;-84
2023/04/15 09:30:23;;;;;;;11.30;7.00;;;;;;;;;;4939329;29;20038;-85
2023/04/15 09:32:52;;;;;;;9.02;5.55;;;;;;;;;;4940871;29;20410;-85
2023/04/15 09:35:19;;;;;;;6.70;4.50;;;;;;;;;;4940685;29;20027;-85
2023/04/15 09:37:45;;;;;;;7.20;4.40;;;;;;;;;;4939843;29;20040;-84
2023/04/15 09:40:12;;;;;;;4.88;3.45;;;;;;;;;;4940120;29;20063;-84
2023/04/15 09:42:56;;;;;;;10.30;5.53;;;;;;;;;;4940677;29;20429;-85
2023/04/15 09:45:23;;;;;;;10.50;6.35;;;;;;;;;;4940856;29;20032;-85
2023/04/15 09:47:52;;;;;;;7.05;3.90;;;;;;;;;;4939646;29;20031;-85
2023/04/15 09:50:19;;;;;;;7.53;4.43;;;;;;;;;;4939629;29;20415;-84
2023/04/15 09:52:46;;;;;;;10.27;4.93;;;;;;;;;;4940512;29;20063;-85
2023/04/15 09:55:13;;;;;;;10.10;4.70;;;;;;;;;;4940468;29;20039;-84
2023/04/15 09:57:46;;;;;;;5.30;2.60;;;;;;;;;;4940592;29;20035;-85
2023/04/15 10:00:12;;;;;;;3.42;2.13;;;;;;;;;;4939704;29;20095;-85
2023/04/15 10:02:42;;;;;;;5.28;1.92;;;;;;;;;;4940566;29;20054;-85
2023/04/15 10:05:13;;;;;;;5.68;2.20;;;;;;;;;;4940292;29;20023;-84
2023/04/15 10:07:40;;;;;;;7.50;2.53;;;;;;;;;;4939917;29;20111;-84
2023/04/15 10:10:06;;;;;;;4.80;2.50;;;;;;;;;;4938758;29;20407;-85
2023/04/15 10:12:32;;;;;;;3.83;1.90;;;;;;;;;;4940439;29;20429;-93
2023/04/15 10:15:00;;;;;;;6.97;3.15;;;;;;;;;;4940486;29;20051;-89
2023/04/15 10:17:28;;;;;;;4.60;2.30;;;;;;;;;;4939511;29;20537;-88
2023/04/15 10:19:54;;;;;;;4.78;2.20;;;;;;;;;;4940411;29;20402;-87
2023/04/15 10:22:22;;;;;;;5.30;1.65;;;;;;;;;;4939103;29;20379;-87
2023/04/15 10:24:48;;;;;;;5.35;1.75;;;;;;;;;;4939209;29;20138;-86
2023/04/15 10:27:17;;;;;;;3.83;2.45;;;;;;;;;;4939781;29;20039;-87
2023/04/15 10:29:43;;;;;;;5.45;1.85;;;;;;;;;;4939203;29;20039;-86
2023/04/15 10:32:10;;;;;;;8.30;3.38;;;;;;;;;;4940350;29;20030;-86
2023/04/15 10:34:36;;;;;;;4.32;2.47;;;;;;;;;;4940458;29;20310;-86
2023/04/15 10:37:02;;;;;;;8.30;4.13;;;;;;;;;;4940229;29;20027;-85
2023/04/15 10:39:41;;;;;;;3.63;1.80;;;;;;;;;;4940436;29;20028;-86
2023/04/15 10:42:09;;;;;;;4.10;2.42;;;;;;;;;;4940173;29;20107;-87
2023/04/15 10:44:38;;;;;;;4.45;2.13;;;;;;;;;;4939145;29;20123;-86
2023/04/15 10:47:07;;;;;;;3.03;1.70;;;;;;;;;;4940161;29;20055;-86
2023/04/15 10:49:33;;;;;;;3.75;1.88;;;;;;;;;;4938953;29;20123;-86
2023/04/15 10:51:59;;;;;;;4.03;1.80;;;;;;;;;;4939120;29;20426;-87
2023/04/15 10:54:25;;;;;;;4.22;2.30;;;;;;;;;;4939227;29;20358;-86
2023/04/15 10:57:06;;;;;;;2.78;1.35;;;;;;;;;;4940233;29;20036;-86
2023/04/15 10:59:36;;;;;;;4.05;1.58;;;;;;;;;;4939912;29;20035;-86
2023/04/15 11:02:04;;;;;;;2.08;1.42;;;;;;;;;;4939648;29;20035;-86
2023/04/15 11:04:49;;;;;;;3.35;1.80;;;;;;;;;;4939845;29;20055;-86
2023/04/15 11:07:15;;;;;;;3.08;1.60;;;;;;;;;;4938688;29;20040;-87
2023/04/15 11:09:41;;;;;;;4.75;2.13;;;;;;;;;;4939846;29;20023;-87
2023/04/15 11:12:08;;;;;;;4.20;1.67;;;;;;;;;;4938728;29;20026;-86
2023/04/15 11:14:34;;;;;;;5.78;1.60;;;;;;;;;;4939943;29;20038;-85
2023/04/15 11:17:01;;;;;;;3.30;1.50;;;;;;;;;;4939652;29;20023;-86
2023/04/15 11:19:34;;;;;;;3.47;1.35;;;;;;;;;;4939429;29;20041;-86
2023/04/15 11:22:07;;;;;;;5.63;2.35;;;;;;;;;;4942239;29;20429;-86
2023/04/15 11:24:34;;;;;;;12.13;5.68;;;;;;;;;;4943336;29;20103;-86
2023/04/15 11:27:01;;;;;;;6.78;3.58;;;;;;;;;;4943125;29;20048;-87
2023/04/15 11:29:31;;;;;;;4.43;2.20;;;;;;;;;;4943208;29;20032;-87
2023/04/15 11:32:08;;;;;;;5.57;2.45;;;;;;;;;;4942261;29;20062;-86
2023/04/15 11:34:35;;;;;;;1.75;0.90;;;;;;;;;;4942976;29;20106;-86
2023/04/15 11:37:04;;;;;;;3.83;1.95;;;;;;;;;;4942295;29;20034;-86
2023/04/15 11:39:30;;;;;;;4.78;2.60;;;;;;;;;;4942029;29;20039;-88
2023/04/15 11:41:56;;;;;;;6.18;1.52;;;;;;;;;;4942550;29;20296;-81
2023/04/15 11:44:22;;;;;;;7.78;2.13;;;;;;;;;;4942536;29;20403;-91
2023/04/15 11:46:48;;;;;;;5.47;1.83;;;;;;;;;;4942010;29;20126;-89
2023/04/15 11:49:28;;;;;;;6.03;1.52;;;;;;;;;;4943981;29;20071;-92
2023/04/15 11:51:54;;;;;;;3.97;2.10;;;;;;;;;;4950742;29;20038;-91
2023/04/15 11:54:20;;;;;;;5.75;2.13;;;;;;;;;;4945339;29;20417;-92
2023/04/15 11:56:51;;;;;;;3.38;1.10;;;;;;;;;;4941757;29;20036;-94
2023/04/15 11:59:17;;;;;;;3.03;1.23;;;;;;;;;;4941936;29;20078;-89
2023/04/15 12:04:46;;;;;;;6.22;3.22;;;;;;;;;;4942897;29;20441;-88
2023/04/15 12:07:13;;;;;;;5.55;2.22;;;;;;;;;;4943579;29;20047;-89
2023/04/15 12:09:39;;;;;;;2.25;1.20;;;;;;;;;;4955015;29;20036;-88
2023/04/15 12:12:06;;;;;;;4.25;1.92;;;;;;;;;;4942254;29;20039;-88
2023/04/15 12:14:32;;;;;;;6.70;2.25;;;;;;;;;;4947241;29;20402;-83
2023/04/15 12:16:59;;;;;;;1.92;1.10;;;;;;;;;;4955427;29;20406;-90
2023/04/15 12:19:38;;;;;;;3.95;1.13;;;;;;;;;;4946975;29;20094;-86
2023/04/15 12:22:11;;;;;;;5.63;1.98;;;;;;;;;;4941666;29;20059;-86
2023/04/15 12:24:37;;;;;;;2.67;1.27;;;;;;;;;;4941528;29;20042;-86
2023/04/15 12:27:05;;;;;;;1.88;1.27;;;;;;;;;;4940584;29;20325;-86
2023/04/15 12:29:32;;;;;;;4.28;1.80;;;;;;;;;;4941873;29;20026;-93
2023/04/15 12:32:03;;;;;;;2.40;1.50;;;;;;;;;;4949733;29;20027;-87
2023/04/15 12:34:35;;;;;;;3.05;2.10;;;;;;;;;;4951784;29;20083;-90
2023/04/15 12:37:02;;;;;;;3.83;3.10;;;;;;;;;;4935011;29;20030;-90
2023/04/15 12:39:33;;;;;;;2.63;1.75;;;;;;;;;;4932054;29;20039;-90
2023/04/15 12:42:00;;;;;;;6.15;4.95;;;;;;;;;;4941940;29;20532;-90
2023/04/15 12:44:27;;;;;;;4.28;1.90;;;;;;;;;;4944915;29;20453;-89
2023/04/15 12:47:12;;;;;;;1.70;1.30;;;;;;;;;;4943738;29;20045;-91
2023/04/15 12:49:38;;;;;;;4.13;2.10;;;;;;;;;;4940454;29;20326;-90
2023/04/15 12:52:04;;;;;;;5.18;3.15;;;;;;;;;;4941704;29;20048;-93
2023/04/15 12:54:31;;;;;;;3.22;1.88;;;;;;;;;;4940877;29;20062;-91
2023/04/15 12:56:58;;;;;;;5.90;3.75;;;;;;;;;;4972548;28;20040;-91
2023/04/15 12:59:24;;;;;;;8.20;4.20;;;;;;;;;;4941789;29;20067;-90
2023/04/15 13:01:50;;;;;;;4.82;3.38;;;;;;;;;;4941445;29;20040;-91
2023/04/15 13:04:17;;;;;;;3.70;1.63;;;;;;;;;;4941370;29;20422;-87
2023/04/15 13:06:43;;;;;;;4.10;1.80;;;;;;;;;;4937487;29;20032;-87
2023/04/15 13:09:09;;;;;;;7.25;5.07;;;;;;;;;;4941191;29;20027;-85
2023/04/15 13:11:35;;;;;;;8.95;5.10;;;;;;;;;;4935379;29;20039;-85
2023/04/15 13:14:05;;;;;;;5.38;3.72;;;;;;;;;;4922404;29;20024;-87
2023/04/15 13:16:34;;;;;;;3.25;2.08;;;;;;;;;;4925188;29;20410;-87
2023/04/15 13:19:00;;;;;;;6.53;4.82;;;;;;;;;;4940102;29;20050;-89
2023/04/15 13:21:30;;;;;;;5.10;2.15;;;;;;;;;;4940041;29;20040;-86
2023/04/15 13:23:56;;;;;;;2.40;1.52;;;;;;;;;;4940298;29;20142;-87
2023/04/15 13:26:22;;;;;;;2.10;1.30;;;;;;;;;;4935993;29;20059;-89
2023/04/15 13:28:48;;;;;;;9.07;4.90;;;;;;;;;;4921873;29;20431;-87
2023/04/15 13:31:16;;;;;;;4.03;2.47;;;;;;;;;;4921396;29;20028;-88
2023/04/15 13:33:43;;;;;;;1.95;1.27;;;;;;;;;;4921268;29;20068;-88
2023/04/15 13:36:09;;;;;;;1.58;1.25;;;;;;;;;;4921874;29;20028;-89
2023/04/15 13:38:35;;;;;;;7.75;4.50;;;;;;;;;;4929954;29;20031;-87
2023/04/15 13:41:01;;;;;;;5.97;2.80;;;;;;;;;;4959006;29;20035;-89
2023/04/15 13:43:27;;;;;;;1.95;1.48;;;;;;;;;;4939138;29;20043;-88
2023/04/15 13:45:57;;;;;;;1.75;1.25;;;;;;;;;;4940071;29;20106;-88
2023/04/15 13:48:23;;;;;;;1.85;0.95;;;;;;;;;;4940973;29;20024;-88
2023/04/15 13:50:49;;;;;;;3.70;2.10;;;;;;;;;;4955284;29;20031;-88
2023/04/15 13:53:15;;;;;;;1.73;0.90;;;;;;;;;;4946030;29;20031;-88
2023/04/15 13:55:42;;;;;;;2.47;1.25;;;;;;;;;;4940938;29;20334;-88
2023/04/15 13:58:08;;;;;;;1.95;1.25;;;;;;;;;;4940849;29;20027;-88
2023/04/15 14:00:34;;;;;;;3.55;1.67;;;;;;;;;;4940966;29;20028;-88
2023/04/15 14:03:00;;;;;;;2.13;1.38;;;;;;;;;;4940563;29;20028;-89
2023/04/15 14:05:27;;;;;;;1.83;1.30;;;;;;;;;;4939932;29;20134;-87
2023/04/15 14:07:53;;;;;;;8.25;5.47;;;;;;;;;;4945178;29;20019;-87
2023/04/15 14:10:19;;;;;;;9.52;7.32;;;;;;;;;;4939621;29;20127;-86
2023/04/15 14:12:45;;;;;;;3.05;2.45;;;;;;;;;;4942532;29;20035;-86
2023/04/15 14:15:42;;;;;;;5.32;2.80;;;;;;;;;;4940749;29;20319;-89
2023/04/15 14:18:08;;;;;;;2.95;1.52;;;;;;;;;;4945717;29;20062;-88
2023/04/15 14:20:34;;;;;;;1.38;1.20;;;;;;;;;;4959901;29;20065;-87
2023/04/15 14:23:00;;;;;;;1.60;1.20;;;;;;;;;;4956640;29;20493;-86
2023/04/15 14:25:26;;;;;;;2.55;1.17;;;;;;;;;;4927941;29;20351;-87
2023/04/15 14:27:53;;;;;;;1.27;1.00;;;;;;;;;;4940438;29;20031;-87
2023/04/15 14:30:19;;;;;;;3.65;2.10;;;;;;;;;;4939943;29;20028;-87
2023/04/15 14:32:45;;;;;;;2.15;1.20;;;;;;;;;;4940521;29;20031;-87
2023/04/15 14:35:13;;;;;;;5.38;2.08;;;;;;;;;;4940925;29;20020;-89
2023/04/15 14:37:39;;;;;;;3.05;1.33;;;;;;;;;;4939715;29;20040;-88
2023/04/15 14:40:06;;;;;;;3.47;0.90;;;;;;;;;;4945048;29;20040;-86
2023/04/15 14:42:34;;;;;;;4.40;1.25;;;;;;;;;;4940270;29;20063;-87
2023/04/15 14:45:00;;;;;;;1.90;1.65;;;;;;;;;;4940408;29;20032;-88
2023/04/15 14:50:30;;;;;;;2.55;1.20;;;;;;;;;;4949528;29;20322;-87
2023/04/15 14:52:56;;;;;;;1.70;1.10;;;;;;;;;;4939299;29;20423;-87
2023/04/15 14:55:22;;;;;;;35.20;21.25;;;;;;;;;;4941273;29;20418;-88
2023/04/15 14:57:48;;;;;;;11.02;7.93;;;;;;;;;;4943364;29;20122;-86
2023/04/15 15:00:14;;;;;;;14.95;11.27;;;;;;;;;;4943736;29;20032;-86
2023/04/15 15:02:41;;;;;;;11.10;7.95;;;;;;;;;;4942520;29;20031;-86
2023/04/15 15:05:07;;;;;;;5.75;4.43;;;;;;;;;;4942671;29;20036;-87
2023/04/15 15:07:35;;;;;;;3.85;2.60;;;;;;;;;;4943625;29;20047;-86
2023/04/15 15:10:01;;;;;;;5.97;2.13;;;;;;;;;;4959351;29;20042;-86
2023/04/15 15:12:27;;;;;;;4.28;2.40;;;;;;;;;;4957816;29;20523;-86